sensor_id;sensor_type;location;lat;lon;timestamp;temperature;humidity
20384;DHT22;46458;50.966;7.002;2024-03-07T00:01:50;6.60;1.00
20384;DHT22;46458;50.966;7.002;2024-03-07T00:04:21;7.10;1.00
20384;DHT22;46458;50.966;7.002;2024-03-07T00:06:50;6.90;1.00
20384;DHT22;46458;50.966;7.002;2024-03-07T00:09:20;7.10;1.00
20384;DHT22;46458;50.966;7.002;2024-03-07T00:11:52;7.00;1.00
20384;DHT22;46458;50.966;7.002;2024-03-07T00:14:21;6.90;1.00
20384;DHT22;46458;50.966;7.002;2024-03-07T00:16:52;6.90;1.00
20384;DHT22;46458;50.966;7.002;2024-03-07T00:19:22;6.40;1.00
20384;DHT22;46458;50.966;7.002;2024-03-07T00:21:53;6.90;1.00
20384;DHT22;46458;50.966;7.002;2024-03-07T00:24:19;6.80;1.00
20384;DHT22;46458;50.966;7.002;2024-03-07T00:26:49;6.70;1.00
20384;DHT22;46458;50.966;7.002;2024-03-07T00:29:21;6.70;1.00
20384;DHT22;46458;50.966;7.002;2024-03-07T00:31:51;6.80;1.00
20384;DHT22;46458;50.966;7.002;2024-03-07T00:34:20;6.50;1.00
20384;DHT22;46458;50.966;7.002;2024-03-07T00:36:52;6.80;1.00
20384;DHT22;46458;50.966;7.002;2024-03-07T00:39:25;6.60;1.00
20384;DHT22;46458;50.966;7.002;2024-03-07T00:41:54;6.50;1.00
20384;DHT22;46458;50.966;7.002;2024-03-07T00:44:25;6.60;1.00
20384;DHT22;46458;50.966;7.002;2024-03-07T00:46:54;6.50;1.00
20384;DHT22;46458;50.966;7.002;2024-03-07T00:52:18;6.50;1.00
20384;DHT22;46458;50.966;7.002;2024-03-07T00:54:47;6.50;1.00
20384;DHT22;46458;50.966;7.002;2024-03-07T00:57:15;6.40;1.00
20384;DHT22;46458;50.966;7.002;2024-03-07T00:59:50;6.70;1.00
20384;DHT22;46458;50.966;7.002;2024-03-07T01:02:21;6.10;1.00
20384;DHT22;46458;50.966;7.002;2024-03-07T01:04:51;6.30;1.00
20384;DHT22;46458;50.966;7.002;2024-03-07T01:07:20;6.50;1.00
20384;DHT22;46458;50.966;7.002;2024-03-07T01:09:49;6.50;1.00
20384;DHT22;46458;50.966;7.002;2024-03-07T01:12:20;6.20;1.00
20384;DHT22;46458;50.966;7.002;2024-03-07T01:14:55;6.20;1.00
20384;DHT22;46458;50.966;7.002;2024-03-07T01:17:27;6.10;1.00
20384;DHT22;46458;50.966;7.002;2024-03-07T01:19:55;6.10;1.00
20384;DHT22;46458;50.966;7.002;2024-03-07T01:22:27;6.10;1.00
20384;DHT22;46458;50.966;7.002;2024-03-07T01:24:59;5.60;1.00
20384;DHT22;46458;50.966;7.002;2024-03-07T01:27:28;5.90;1.00
20384;DHT22;46458;50.966;7.002;2024-03-07T01:29:59;6.10;1.00
20384;DHT22;46458;50.966;7.002;2024-03-07T01:32:31;6.20;5.40
20384;DHT22;46458;50.966;7.002;2024-03-07T01:35:00;6.00;1.00
20384;DHT22;46458;50.966;7.002;2024-03-07T01:37:29;6.50;1.00
20384;DHT22;46458;50.966;7.002;2024-03-07T01:39:57;6.00;1.00
20384;DHT22;46458;50.966;7.002;2024-03-07T01:42:31;6.00;1.00
20384;DHT22;46458;50.966;7.002;2024-03-07T01:45:03;6.00;1.00
20384;DHT22;46458;50.966;7.002;2024-03-07T01:47:33;5.80;1.00
20384;DHT22;46458;50.966;7.002;2024-03-07T01:50:03;5.80;1.00
20384;DHT22;46458;50.966;7.002;2024-03-07T01:52:32;5.80;1.00
20384;DHT22;46458;50.966;7.002;2024-03-07T01:55:01;5.70;1.00
20384;DHT22;46458;50.966;7.002;2024-03-07T01:57:34;5.80;1.00
20384;DHT22;46458;50.966;7.002;2024-03-07T02:00:10;5.80;1.00
20384;DHT22;46458;50.966;7.002;2024-03-07T02:02:39;5.80;1.00
20384;DHT22;46458;50.966;7.002;2024-03-07T02:05:11;5.80;1.00
20384;DHT22;46458;50.966;7.002;2024-03-07T02:07:40;5.80;1.00
20384;DHT22;46458;50.966;7.002;2024-03-07T02:10:09;5.60;47.30
20384;DHT22;46458;50.966;7.002;2024-03-07T02:12:41;5.70;99.90
20384;DHT22;46458;50.966;7.002;2024-03-07T02:15:16;5.50;39.10
20384;DHT22;46458;50.966;7.002;2024-03-07T02:17:48;5.60;26.50
20384;DHT22;46458;50.966;7.002;2024-03-07T02:20:17;5.80;69.70
20384;DHT22;46458;50.966;7.002;2024-03-07T02:22:49;5.80;37.80
20384;DHT22;46458;50.966;7.002;2024-03-07T02:25:18;5.80;42.40
20384;DHT22;46458;50.966;7.002;2024-03-07T02:27:47;5.60;34.60
20384;DHT22;46458;50.966;7.002;2024-03-07T02:30:21;5.70;91.40
20384;DHT22;46458;50.966;7.002;2024-03-07T02:32:50;7.70;1.00
20384;DHT22;46458;50.966;7.002;2024-03-07T02:35:20;5.50;25.90
20384;DHT22;46458;50.966;7.002;2024-03-07T02:37:52;5.50;95.60
20384;DHT22;46458;50.966;7.002;2024-03-07T02:40:23;5.50;41.40
20384;DHT22;46458;50.966;7.002;2024-03-07T02:42:52;6.70;1.00
20384;DHT22;46458;50.966;7.002;2024-03-07T02:45:21;5.40;55.70
20384;DHT22;46458;50.966;7.002;2024-03-07T02:47:50;5.40;78.70
20384;DHT22;46458;50.966;7.002;2024-03-07T02:50:19;5.80;99.90
20384;DHT22;46458;50.966;7.002;2024-03-07T02:52:52;5.40;93.50
20384;DHT22;46458;50.966;7.002;2024-03-07T02:55:21;5.40;73.00
20384;DHT22;46458;50.966;7.002;2024-03-07T02:57:50;5.30;99.70
20384;DHT22;46458;50.966;7.002;2024-03-07T03:00:22;5.30;93.50
20384;DHT22;46458;50.966;7.002;2024-03-07T03:02:56;5.30;99.90
20384;DHT22;46458;50.966;7.002;2024-03-07T03:05:27;5.40;99.90
20384;DHT22;46458;50.966;7.002;2024-03-07T03:08:02;5.50;1.00
20384;DHT22;46458;50.966;7.002;2024-03-07T03:10:33;5.00;99.90
20384;DHT22;46458;50.966;7.002;2024-03-07T03:12:59;5.30;99.90
20384;DHT22;46458;50.966;7.002;2024-03-07T03:15:28;5.30;99.90
20384;DHT22;46458;50.966;7.002;2024-03-07T03:17:57;5.20;99.90
20384;DHT22;46458;50.966;7.002;2024-03-07T03:20:27;5.30;99.90
20384;DHT22;46458;50.966;7.002;2024-03-07T03:23:03;5.40;99.90
20384;DHT22;46458;50.966;7.002;2024-03-07T03:25:32;5.20;99.90
20384;DHT22;46458;50.966;7.002;2024-03-07T03:28:01;5.20;99.90
20384;DHT22;46458;50.966;7.002;2024-03-07T03:30:30;5.30;99.90
20384;DHT22;46458;50.966;7.002;2024-03-07T03:32:59;5.20;67.00
20384;DHT22;46458;50.966;7.002;2024-03-07T03:35:28;5.40;1.00
20384;DHT22;46458;50.966;7.002;2024-03-07T03:37:57;5.30;1.00
20384;DHT22;46458;50.966;7.002;2024-03-07T03:40:29;5.30;1.00
20384;DHT22;46458;50.966;7.002;2024-03-07T03:42:58;5.40;6.10
20384;DHT22;46458;50.966;7.002;2024-03-07T03:45:27;5.20;1.00
20384;DHT22;46458;50.966;7.002;2024-03-07T03:47:59;5.20;1.00
20384;DHT22;46458;50.966;7.002;2024-03-07T03:50:28;5.10;1.00
20384;DHT22;46458;50.966;7.002;2024-03-07T03:53:00;5.60;1.00
20384;DHT22;46458;50.966;7.002;2024-03-07T03:55:35;5.10;1.00
20384;DHT22;46458;50.966;7.002;2024-03-07T03:58:04;5.10;1.00
20384;DHT22;46458;50.966;7.002;2024-03-07T04:00:36;5.00;1.00
20384;DHT22;46458;50.966;7.002;2024-03-07T04:03:08;5.00;1.00
20384;DHT22;46458;50.966;7.002;2024-03-07T04:05:39;5.00;1.00
20384;DHT22;46458;50.966;7.002;2024-03-07T04:08:09;5.00;53.70
20384;DHT22;46458;50.966;7.002;2024-03-07T04:10:40;5.00;37.90
20384;DHT22;46458;50.966;7.002;2024-03-07T04:13:24;5.10;57.30
20384;DHT22;46458;50.966;7.002;2024-03-07T04:15:54;5.00;47.60
20384;DHT22;46458;50.966;7.002;2024-03-07T04:18:23;5.70;23.50
20384;DHT22;46458;50.966;7.002;2024-03-07T04:20:52;5.00;24.60
20384;DHT22;46458;50.966;7.002;2024-03-07T04:23:21;5.00;33.20
20384;DHT22;46458;50.966;7.002;2024-03-07T04:25:52;4.80;47.10
20384;DHT22;46458;50.966;7.002;2024-03-07T04:28:22;4.90;63.40
20384;DHT22;46458;50.966;7.002;2024-03-07T04:30:50;5.40;63.00
20384;DHT22;46458;50.966;7.002;2024-03-07T04:33:22;4.90;74.30
20384;DHT22;46458;50.966;7.002;2024-03-07T04:35:52;4.90;89.10
20384;DHT22;46458;50.966;7.002;2024-03-07T04:38:24;4.90;52.00
20384;DHT22;46458;50.966;7.002;2024-03-07T04:40:56;4.80;19.50
20384;DHT22;46458;50.966;7.002;2024-03-07T04:43:29;4.80;1.00
20384;DHT22;46458;50.966;7.002;2024-03-07T04:45:59;4.90;28.50
20384;DHT22;46458;50.966;7.002;2024-03-07T04:48:28;4.80;20.50
20384;DHT22;46458;50.966;7.002;2024-03-07T04:50:56;4.80;1.00
20384;DHT22;46458;50.966;7.002;2024-03-07T04:53:25;4.80;1.00
20384;DHT22;46458;50.966;7.002;2024-03-07T04:55:57;4.80;16.00
20384;DHT22;46458;50.966;7.002;2024-03-07T04:58:26;4.80;31.00
20384;DHT22;46458;50.966;7.002;2024-03-07T05:00:54;4.60;56.60
20384;DHT22;46458;50.966;7.002;2024-03-07T05:03:26;4.60;91.90
20384;DHT22;46458;50.966;7.002;2024-03-07T05:05:58;4.60;99.90
20384;DHT22;46458;50.966;7.002;2024-03-07T05:08:28;4.80;99.90
20384;DHT22;46458;50.966;7.002;2024-03-07T05:10:59;4.80;99.90
20384;DHT22;46458;50.966;7.002;2024-03-07T05:13:30;4.70;99.90
20384;DHT22;46458;50.966;7.002;2024-03-07T05:16:02;4.80;99.90
20384;DHT22;46458;50.966;7.002;2024-03-07T05:18:30;4.70;99.90
20384;DHT22;46458;50.966;7.002;2024-03-07T05:20:59;4.90;92.50
20384;DHT22;46458;50.966;7.002;2024-03-07T05:23:48;5.20;51.80
20384;DHT22;46458;50.966;7.002;2024-03-07T05:26:20;5.20;4.10
20384;DHT22;46458;50.966;7.002;2024-03-07T05:28:49;5.10;1.00
20384;DHT22;46458;50.966;7.002;2024-03-07T05:31:20;5.30;1.00
20384;DHT22;46458;50.966;7.002;2024-03-07T05:33:49;5.30;1.00
20384;DHT22;46458;50.966;7.002;2024-03-07T05:36:18;5.50;1.00
20384;DHT22;46458;50.966;7.002;2024-03-07T05:38:47;5.40;1.00
20384;DHT22;46458;50.966;7.002;2024-03-07T05:41:16;5.50;1.00
20384;DHT22;46458;50.966;7.002;2024-03-07T05:43:49;5.50;1.00
20384;DHT22;46458;50.966;7.002;2024-03-07T05:46:18;5.60;1.00
20384;DHT22;46458;50.966;7.002;2024-03-07T05:48:47;5.60;1.00
20384;DHT22;46458;50.966;7.002;2024-03-07T05:51:18;5.70;1.00
20384;DHT22;46458;50.966;7.002;2024-03-07T05:53:47;5.60;1.00
20384;DHT22;46458;50.966;7.002;2024-03-07T05:56:16;5.70;1.00
20384;DHT22;46458;50.966;7.002;2024-03-07T05:58:45;5.60;1.00
20384;DHT22;46458;50.966;7.002;2024-03-07T06:01:19;5.50;1.00
20384;DHT22;46458;50.966;7.002;2024-03-07T06:03:51;5.40;1.00
20384;DHT22;46458;50.966;7.002;2024-03-07T06:06:20;5.40;1.00
20384;DHT22;46458;50.966;7.002;2024-03-07T06:08:49;5.50;1.00
20384;DHT22;46458;50.966;7.002;2024-03-07T06:11:18;5.40;1.00
20384;DHT22;46458;50.966;7.002;2024-03-07T06:13:47;5.30;1.00
20384;DHT22;46458;50.966;7.002;2024-03-07T06:16:21;5.30;1.00
20384;DHT22;46458;50.966;7.002;2024-03-07T06:18:50;5.30;1.00
20384;DHT22;46458;50.966;7.002;2024-03-07T06:21:19;5.00;1.00
20384;DHT22;46458;50.966;7.002;2024-03-07T06:23:48;5.20;1.00
20384;DHT22;46458;50.966;7.002;2024-03-07T06:26:25;5.00;1.00
20384;DHT22;46458;50.966;7.002;2024-03-07T06:29:04;5.20;1.00
20384;DHT22;46458;50.966;7.002;2024-03-07T06:31:36;4.90;1.00
20384;DHT22;46458;50.966;7.002;2024-03-07T06:34:05;5.10;1.00
20384;DHT22;46458;50.966;7.002;2024-03-07T06:36:34;5.10;1.00
20384;DHT22;46458;50.966;7.002;2024-03-07T06:39:03;5.30;1.00
20384;DHT22;46458;50.966;7.002;2024-03-07T06:41:36;5.10;1.00
20384;DHT22;46458;50.966;7.002;2024-03-07T06:44:05;5.00;1.00
20384;DHT22;46458;50.966;7.002;2024-03-07T06:46:38;5.10;1.00
20384;DHT22;46458;50.966;7.002;2024-03-07T06:49:06;5.80;1.00
20384;DHT22;46458;50.966;7.002;2024-03-07T06:51:36;5.00;1.00
20384;DHT22;46458;50.966;7.002;2024-03-07T06:54:05;5.10;1.00
20384;DHT22;46458;50.966;7.002;2024-03-07T06:56:34;5.00;1.00
20384;DHT22;46458;50.966;7.002;2024-03-07T06:59:03;5.10;1.00
20384;DHT22;46458;50.966;7.002;2024-03-07T07:01:32;5.10;1.00
20384;DHT22;46458;50.966;7.002;2024-03-07T07:04:03;5.10;1.00
20384;DHT22;46458;50.966;7.002;2024-03-07T07:06:34;5.20;1.00
20384;DHT22;46458;50.966;7.002;2024-03-07T07:09:10;5.20;1.00
20384;DHT22;46458;50.966;7.002;2024-03-07T07:11:38;5.30;1.00
20384;DHT22;46458;50.966;7.002;2024-03-07T07:14:11;5.30;1.00
20384;DHT22;46458;50.966;7.002;2024-03-07T07:16:40;5.40;1.00
20384;DHT22;46458;50.966;7.002;2024-03-07T07:19:14;5.40;1.00
20384;DHT22;46458;50.966;7.002;2024-03-07T07:21:42;5.50;1.00
20384;DHT22;46458;50.966;7.002;2024-03-07T07:24:13;5.50;1.00
20384;DHT22;46458;50.966;7.002;2024-03-07T07:26:42;5.60;1.00
20384;DHT22;46458;50.966;7.002;2024-03-07T07:29:13;5.70;1.00
20384;DHT22;46458;50.966;7.002;2024-03-07T07:31:42;5.80;1.00
20384;DHT22;46458;50.966;7.002;2024-03-07T07:34:19;5.60;1.00
20384;DHT22;46458;50.966;7.002;2024-03-07T07:36:49;5.80;1.00
20384;DHT22;46458;50.966;7.002;2024-03-07T07:39:19;5.80;1.00
20384;DHT22;46458;50.966;7.002;2024-03-07T07:41:50;6.10;1.00
20384;DHT22;46458;50.966;7.002;2024-03-07T07:44:19;5.60;99.90
20384;DHT22;46458;50.966;7.002;2024-03-07T07:46:48;6.10;1.00
20384;DHT22;46458;50.966;7.002;2024-03-07T07:49:20;6.10;1.00
20384;DHT22;46458;50.966;7.002;2024-03-07T07:51:48;6.20;1.00
20384;DHT22;46458;50.966;7.002;2024-03-07T07:54:19;6.40;1.00
20384;DHT22;46458;50.966;7.002;2024-03-07T07:56:50;6.40;1.00
20384;DHT22;46458;50.966;7.002;2024-03-07T07:59:22;6.60;99.90
20384;DHT22;46458;50.966;7.002;2024-03-07T08:01:54;6.50;99.90
20384;DHT22;46458;50.966;7.002;2024-03-07T08:04:25;6.30;99.90
20384;DHT22;46458;50.966;7.002;2024-03-07T08:06:54;6.60;99.90
20384;DHT22;46458;50.966;7.002;2024-03-07T08:09:22;6.80;99.90
20384;DHT22;46458;50.966;7.002;2024-03-07T08:11:51;6.80;99.90
20384;DHT22;46458;50.966;7.002;2024-03-07T08:14:20;6.90;99.90
20384;DHT22;46458;50.966;7.002;2024-03-07T08:16:49;7.10;99.90
20384;DHT22;46458;50.966;7.002;2024-03-07T08:19:21;7.10;99.90
20384;DHT22;46458;50.966;7.002;2024-03-07T08:21:53;7.50;99.90
20384;DHT22;46458;50.966;7.002;2024-03-07T08:24:22;7.60;99.90
20384;DHT22;46458;50.966;7.002;2024-03-07T08:26:50;7.90;99.90
20384;DHT22;46458;50.966;7.002;2024-03-07T08:29:22;8.20;99.90
20384;DHT22;46458;50.966;7.002;2024-03-07T08:31:51;8.40;99.90
20384;DHT22;46458;50.966;7.002;2024-03-07T08:34:20;8.80;99.90
20384;DHT22;46458;50.966;7.002;2024-03-07T08:36:49;9.00;99.90
20384;DHT22;46458;50.966;7.002;2024-03-07T08:39:21;9.40;99.90
20384;DHT22;46458;50.966;7.002;2024-03-07T08:41:49;9.70;99.90
20384;DHT22;46458;50.966;7.002;2024-03-07T08:44:18;10.00;99.90
20384;DHT22;46458;50.966;7.002;2024-03-07T08:46:47;10.20;99.90
20384;DHT22;46458;50.966;7.002;2024-03-07T08:49:16;10.30;99.90
20384;DHT22;46458;50.966;7.002;2024-03-07T08:51:45;10.60;99.90
20384;DHT22;46458;50.966;7.002;2024-03-07T08:54:14;10.60;99.90
20384;DHT22;46458;50.966;7.002;2024-03-07T08:56:45;11.00;99.90
20384;DHT22;46458;50.966;7.002;2024-03-07T08:59:14;11.30;99.90
20384;DHT22;46458;50.966;7.002;2024-03-07T09:01:44;11.60;99.90
20384;DHT22;46458;50.966;7.002;2024-03-07T09:04:12;11.50;99.90
20384;DHT22;46458;50.966;7.002;2024-03-07T09:06:43;12.00;92.20
20384;DHT22;46458;50.966;7.002;2024-03-07T09:09:13;11.90;99.90
20384;DHT22;46458;50.966;7.002;2024-03-07T09:11:46;12.10;99.90
20384;DHT22;46458;50.966;7.002;2024-03-07T09:14:18;12.30;99.90
20384;DHT22;46458;50.966;7.002;2024-03-07T09:16:50;12.10;99.90
20384;DHT22;46458;50.966;7.002;2024-03-07T09:19:19;11.50;1.00
20384;DHT22;46458;50.966;7.002;2024-03-07T09:21:50;12.80;99.90
20384;DHT22;46458;50.966;7.002;2024-03-07T09:24:22;12.40;99.90
20384;DHT22;46458;50.966;7.002;2024-03-07T09:26:53;12.40;99.90
20384;DHT22;46458;50.966;7.002;2024-03-07T09:29:23;12.10;99.90
20384;DHT22;46458;50.966;7.002;2024-03-07T09:31:52;12.10;99.90
20384;DHT22;46458;50.966;7.002;2024-03-07T09:34:21;12.60;99.90
20384;DHT22;46458;50.966;7.002;2024-03-07T09:36:50;12.30;99.90
20384;DHT22;46458;50.966;7.002;2024-03-07T09:39:20;12.10;99.90
20384;DHT22;46458;50.966;7.002;2024-03-07T09:41:49;12.10;99.90
20384;DHT22;46458;50.966;7.002;2024-03-07T09:44:24;12.10;99.90
20384;DHT22;46458;50.966;7.002;2024-03-07T09:46:56;12.40;99.90
20384;DHT22;46458;50.966;7.002;2024-03-07T09:49:28;12.40;99.90
20384;DHT22;46458;50.966;7.002;2024-03-07T09:52:01;12.20;1.00
20384;DHT22;46458;50.966;7.002;2024-03-07T09:54:34;12.10;99.90
20384;DHT22;46458;50.966;7.002;2024-03-07T09:57:06;12.30;99.90
20384;DHT22;46458;50.966;7.002;2024-03-07T09:59:38;12.20;99.90
20384;DHT22;46458;50.966;7.002;2024-03-07T10:02:12;12.20;99.90
20384;DHT22;46458;50.966;7.002;2024-03-07T10:04:43;11.70;99.90
20384;DHT22;46458;50.966;7.002;2024-03-07T10:07:15;11.80;99.90
20384;DHT22;46458;50.966;7.002;2024-03-07T10:09:44;11.40;99.90
20384;DHT22;46458;50.966;7.002;2024-03-07T10:12:14;11.50;99.90
20384;DHT22;46458;50.966;7.002;2024-03-07T10:14:51;11.50;99.90
20384;DHT22;46458;50.966;7.002;2024-03-07T10:17:28;11.60;99.90
20384;DHT22;46458;50.966;7.002;2024-03-07T10:19:58;11.00;99.90
20384;DHT22;46458;50.966;7.002;2024-03-07T10:22:27;11.30;99.90
20384;DHT22;46458;50.966;7.002;2024-03-07T10:25:00;11.40;99.90
20384;DHT22;46458;50.966;7.002;2024-03-07T10:27:29;11.40;1.00
20384;DHT22;46458;50.966;7.002;2024-03-07T10:30:05;11.50;99.90
20384;DHT22;46458;50.966;7.002;2024-03-07T10:32:42;11.50;81.00
20384;DHT22;46458;50.966;7.002;2024-03-07T10:35:11;11.70;99.90
20384;DHT22;46458;50.966;7.002;2024-03-07T10:37:41;11.90;99.90
20384;DHT22;46458;50.966;7.002;2024-03-07T10:42:46;12.40;99.90
20384;DHT22;46458;50.966;7.002;2024-03-07T10:45:20;13.40;95.80
20384;DHT22;46458;50.966;7.002;2024-03-07T10:47:53;13.80;96.00
20384;DHT22;46458;50.966;7.002;2024-03-07T10:50:33;14.00;98.00
20384;DHT22;46458;50.966;7.002;2024-03-07T10:53:10;14.90;96.70
20384;DHT22;46458;50.966;7.002;2024-03-07T10:55:45;14.90;94.50
20384;DHT22;46458;50.966;7.002;2024-03-07T10:58:25;15.10;54.70
20384;DHT22;46458;50.966;7.002;2024-03-07T11:01:01;15.50;99.10
20384;DHT22;46458;50.966;7.002;2024-03-07T11:03:32;17.00;1.00
20384;DHT22;46458;50.966;7.002;2024-03-07T11:06:06;15.20;99.90
20384;DHT22;46458;50.966;7.002;2024-03-07T11:08:38;14.90;99.90
20384;DHT22;46458;50.966;7.002;2024-03-07T11:11:07;14.40;99.90
20384;DHT22;46458;50.966;7.002;2024-03-07T11:13:38;14.50;99.90
20384;DHT22;46458;50.966;7.002;2024-03-07T11:16:10;13.80;99.90
20384;DHT22;46458;50.966;7.002;2024-03-07T11:18:40;13.80;99.90
20384;DHT22;46458;50.966;7.002;2024-03-07T11:24:08;13.90;1.00
20384;DHT22;46458;50.966;7.002;2024-03-07T11:26:42;12.80;99.90
20384;DHT22;46458;50.966;7.002;2024-03-07T11:29:41;12.90;99.90
20384;DHT22;46458;50.966;7.002;2024-03-07T11:32:16;12.70;1.00
20384;DHT22;46458;50.966;7.002;2024-03-07T11:34:47;13.00;99.90
20384;DHT22;46458;50.966;7.002;2024-03-07T11:37:21;13.40;99.90
20384;DHT22;46458;50.966;7.002;2024-03-07T11:40:08;13.70;99.90
20384;DHT22;46458;50.966;7.002;2024-03-07T11:42:45;13.80;99.90
20384;DHT22;46458;50.966;7.002;2024-03-07T11:45:15;14.00;99.90
20384;DHT22;46458;50.966;7.002;2024-03-07T11:47:54;14.50;1.00
20384;DHT22;46458;50.966;7.002;2024-03-07T11:50:32;15.60;1.00
20384;DHT22;46458;50.966;7.002;2024-03-07T11:53:03;16.90;99.90
20384;DHT22;46458;50.966;7.002;2024-03-07T11:55:36;17.90;99.90
20384;DHT22;46458;50.966;7.002;2024-03-07T11:58:15;19.00;1.00
20384;DHT22;46458;50.966;7.002;2024-03-07T12:00:47;18.90;99.90
20384;DHT22;46458;50.966;7.002;2024-03-07T12:03:20;18.50;11.60
20384;DHT22;46458;50.966;7.002;2024-03-07T12:05:51;17.00;12.30
20384;DHT22;46458;50.966;7.002;2024-03-07T12:08:20;16.10;15.20
20384;DHT22;46458;50.966;7.002;2024-03-07T12:10:49;15.00;12.80
20384;DHT22;46458;50.966;7.002;2024-03-07T12:13:22;14.40;47.60
20384;DHT22;46458;50.966;7.002;2024-03-07T12:15:52;13.90;58.30
20384;DHT22;46458;50.966;7.002;2024-03-07T12:18:24;13.30;42.20
20384;DHT22;46458;50.966;7.002;2024-03-07T12:20:53;13.30;90.80
20384;DHT22;46458;50.966;7.002;2024-03-07T12:23:25;13.00;90.00
20384;DHT22;46458;50.966;7.002;2024-03-07T12:26:01;13.20;92.90
20384;DHT22;46458;50.966;7.002;2024-03-07T12:28:30;13.10;99.90
20384;DHT22;46458;50.966;7.002;2024-03-07T12:31:00;13.10;96.70
20384;DHT22;46458;50.966;7.002;2024-03-07T12:33:37;13.00;99.90
20384;DHT22;46458;50.966;7.002;2024-03-07T12:36:12;14.50;99.00
20384;DHT22;46458;50.966;7.002;2024-03-07T12:38:47;16.70;64.00
20384;DHT22;46458;50.966;7.002;2024-03-07T12:41:22;18.40;1.00
20384;DHT22;46458;50.966;7.002;2024-03-07T12:43:52;19.70;1.00
20384;DHT22;46458;50.966;7.002;2024-03-07T12:46:23;19.80;1.00
20384;DHT22;46458;50.966;7.002;2024-03-07T12:48:57;18.90;1.00
20384;DHT22;46458;50.966;7.002;2024-03-07T12:51:26;17.90;1.00
20384;DHT22;46458;50.966;7.002;2024-03-07T12:53:55;17.10;7.90
20384;DHT22;46458;50.966;7.002;2024-03-07T12:56:24;15.30;1.00
20384;DHT22;46458;50.966;7.002;2024-03-07T12:58:56;14.60;1.00
20384;DHT22;46458;50.966;7.002;2024-03-07T13:01:26;14.00;1.00
20384;DHT22;46458;50.966;7.002;2024-03-07T13:03:57;13.70;49.10
20384;DHT22;46458;50.966;7.002;2024-03-07T13:06:26;13.50;58.50
20384;DHT22;46458;50.966;7.002;2024-03-07T13:08:56;13.30;1.00
20384;DHT22;46458;50.966;7.002;2024-03-07T13:11:29;13.20;69.30
20384;DHT22;46458;50.966;7.002;2024-03-07T13:14:00;12.90;91.20
20384;DHT22;46458;50.966;7.002;2024-03-07T13:16:30;13.10;97.90
20384;DHT22;46458;50.966;7.002;2024-03-07T13:19:01;13.30;97.50
20384;DHT22;46458;50.966;7.002;2024-03-07T13:21:30;14.10;94.00
20384;DHT22;46458;50.966;7.002;2024-03-07T13:24:01;15.80;68.00
20384;DHT22;46458;50.966;7.002;2024-03-07T13:26:29;18.10;28.10
20384;DHT22;46458;50.966;7.002;2024-03-07T13:28:58;19.90;5.60
20384;DHT22;46458;50.966;7.002;2024-03-07T13:31:31;19.60;1.00
20384;DHT22;46458;50.966;7.002;2024-03-07T13:34:02;19.30;1.00
20384;DHT22;46458;50.966;7.002;2024-03-07T13:36:32;17.80;10.80
20384;DHT22;46458;50.966;7.002;2024-03-07T13:39:03;17.00;1.00
20384;DHT22;46458;50.966;7.002;2024-03-07T13:41:37;16.50;15.80
20384;DHT22;46458;50.966;7.002;2024-03-07T13:44:05;16.10;20.20
20384;DHT22;46458;50.966;7.002;2024-03-07T13:46:34;15.30;32.90
20384;DHT22;46458;50.966;7.002;2024-03-07T13:49:09;14.70;39.30
20384;DHT22;46458;50.966;7.002;2024-03-07T13:51:39;14.40;61.00
20384;DHT22;46458;50.966;7.002;2024-03-07T13:54:17;13.50;13.20
20384;DHT22;46458;50.966;7.002;2024-03-07T13:57:20;13.00;54.50
20384;DHT22;46458;50.966;7.002;2024-03-07T14:00:08;13.00;1.00
20384;DHT22;46458;50.966;7.002;2024-03-07T14:05:59;15.70;1.00
20384;DHT22;46458;50.966;7.002;2024-03-07T14:08:55;15.40;44.50
20384;DHT22;46458;50.966;7.002;2024-03-07T14:11:56;14.20;1.00
20384;DHT22;46458;50.966;7.002;2024-03-07T14:17:58;13.40;1.00
20384;DHT22;46458;50.966;7.002;2024-03-07T14:21:03;13.40;85.10
20384;DHT22;46458;50.966;7.002;2024-03-07T14:24:08;13.30;1.00
20384;DHT22;46458;50.966;7.002;2024-03-07T14:27:09;13.10;1.00
20384;DHT22;46458;50.966;7.002;2024-03-07T14:29:49;13.10;86.30
20384;DHT22;46458;50.966;7.002;2024-03-07T14:32:23;12.90;94.10
20384;DHT22;46458;50.966;7.002;2024-03-07T14:34:59;12.60;92.30
20384;DHT22;46458;50.966;7.002;2024-03-07T14:37:38;12.50;98.50
20384;DHT22;46458;50.966;7.002;2024-03-07T14:40:10;12.20;97.00
20384;DHT22;46458;50.966;7.002;2024-03-07T14:42:43;12.30;98.50
20384;DHT22;46458;50.966;7.002;2024-03-07T14:45:14;12.40;99.90
20384;DHT22;46458;50.966;7.002;2024-03-07T14:47:48;12.10;99.90
20384;DHT22;46458;50.966;7.002;2024-03-07T14:50:18;11.90;99.90
20384;DHT22;46458;50.966;7.002;2024-03-07T14:52:52;12.10;99.90
20384;DHT22;46458;50.966;7.002;2024-03-07T14:55:21;12.20;99.90
20384;DHT22;46458;50.966;7.002;2024-03-07T14:57:50;12.40;99.90
20384;DHT22;46458;50.966;7.002;2024-03-07T15:00:19;12.60;99.90
20384;DHT22;46458;50.966;7.002;2024-03-07T15:02:54;12.30;99.90
20384;DHT22;46458;50.966;7.002;2024-03-07T15:05:24;12.60;99.90
20384;DHT22;46458;50.966;7.002;2024-03-07T15:08:02;12.30;85.40
20384;DHT22;46458;50.966;7.002;2024-03-07T15:10:35;12.90;1.00
20384;DHT22;46458;50.966;7.002;2024-03-07T15:13:06;13.40;83.80
20384;DHT22;46458;50.966;7.002;2024-03-07T15:15:38;13.60;99.90
20384;DHT22;46458;50.966;7.002;2024-03-07T15:18:08;13.20;80.60
20384;DHT22;46458;50.966;7.002;2024-03-07T15:20:38;13.30;97.50
20384;DHT22;46458;50.966;7.002;2024-03-07T15:23:10;13.20;93.30
20384;DHT22;46458;50.966;7.002;2024-03-07T15:25:40;12.90;94.30
20384;DHT22;46458;50.966;7.002;2024-03-07T15:28:08;13.10;98.30
20384;DHT22;46458;50.966;7.002;2024-03-07T15:30:38;13.00;90.80
20384;DHT22;46458;50.966;7.002;2024-03-07T15:33:08;12.90;90.00
20384;DHT22;46458;50.966;7.002;2024-03-07T15:35:37;12.70;90.40
20384;DHT22;46458;50.966;7.002;2024-03-07T15:38:09;12.30;1.00
20384;DHT22;46458;50.966;7.002;2024-03-07T15:40:41;12.50;99.90
20384;DHT22;46458;50.966;7.002;2024-03-07T15:43:09;12.40;97.70
20384;DHT22;46458;50.966;7.002;2024-03-07T15:45:38;12.50;96.30
20384;DHT22;46458;50.966;7.002;2024-03-07T15:48:09;12.40;98.70
20384;DHT22;46458;50.966;7.002;2024-03-07T15:50:38;12.30;99.90
20384;DHT22;46458;50.966;7.002;2024-03-07T15:53:15;12.10;94.80
20384;DHT22;46458;50.966;7.002;2024-03-07T15:55:46;12.20;97.20
20384;DHT22;46458;50.966;7.002;2024-03-07T15:58:15;13.80;1.00
20384;DHT22;46458;50.966;7.002;2024-03-07T16:00:45;11.70;98.20
20384;DHT22;46458;50.966;7.002;2024-03-07T16:03:15;11.60;84.00
20384;DHT22;46458;50.966;7.002;2024-03-07T16:05:44;11.70;99.90
20384;DHT22;46458;50.966;7.002;2024-03-07T16:08:16;11.40;99.90
20384;DHT22;46458;50.966;7.002;2024-03-07T16:10:45;11.50;99.90
20384;DHT22;46458;50.966;7.002;2024-03-07T16:13:15;11.20;99.90
20384;DHT22;46458;50.966;7.002;2024-03-07T16:15:45;11.00;99.90
20384;DHT22;46458;50.966;7.002;2024-03-07T16:18:15;11.10;99.90
20384;DHT22;46458;50.966;7.002;2024-03-07T16:20:49;11.00;99.90
20384;DHT22;46458;50.966;7.002;2024-03-07T16:23:20;10.80;99.90
20384;DHT22;46458;50.966;7.002;2024-03-07T16:25:50;10.80;99.90
20384;DHT22;46458;50.966;7.002;2024-03-07T16:28:19;10.50;99.90